Time;durP1;ratioP1;P1;durP2;ratioP2;P2;SDS_P1;SDS_P2;PMS_P1;PMS_P2;Temp;Humidity;BMP_temperature;BMP_pressure;BME280_temperature;BME280_humidity;BME280_pressure;Samples;Min_cycle;Max_cycle;Signal;HPM_P1;HPM_P2
2022/07/26 00:01:23;;;;;;;16.92;10.30;;;;;;;25.07;100.00;99978.00;4992211;28;20035;-82
2022/07/26 00:04:04;;;;;;;14.20;10.02;;;;;;;25.10;100.00;99993.72;4974799;28;20138;-83
2022/07/26 00:07:00;;;;;;;14.43;9.90;;;;;;;25.18;100.00;100001.34;4993085;28;20449;-83
2022/07/26 00:09:35;;;;;;;13.68;10.13;;;;;;;25.10;100.00;100012.72;4969444;28;20059;-83
2022/07/26 00:12:38;;;;;;;22.08;10.63;;;;;;;25.10;100.00;100014.59;4979517;28;20050;-82
2022/07/26 00:15:18;;;;;;;21.38;10.75;;;;;;;25.19;100.00;100018.41;4987249;28;20126;-83
2022/07/26 00:17:45;;;;;;;20.45;10.93;;;;;;;25.08;100.00;100019.50;4975068;28;20046;-83
2022/07/26 00:20:12;;;;;;;14.73;11.10;;;;;;;25.00;100.00;100009.16;4991053;28;20042;-83
2022/07/26 00:22:40;;;;;;;14.68;10.65;;;;;;;24.99;100.00;100021.13;4973791;28;20092;-83
2022/07/26 00:25:13;;;;;;;14.23;10.32;;;;;;;25.00;100.00;100023.53;4958251;28;20038;-82
2022/07/26 00:28:00;;;;;;;22.73;11.02;;;;;;;25.13;100.00;100030.34;4976147;28;20646;-82
2022/07/26 00:30:26;;;;;;;15.02;10.95;;;;;;;25.06;100.00;100040.63;4974216;28;20050;-82
2022/07/26 00:33:18;;;;;;;17.17;10.90;;;;;;;24.93;100.00;100033.00;4990863;28;20046;-82
2022/07/26 00:35:51;;;;;;;18.33;11.18;;;;;;;24.87;100.00;100025.97;4974731;28;20035;-82
2022/07/26 00:38:28;;;;;;;17.92;13.00;;;;;;;24.87;100.00;100021.34;4990257;28;20035;-83
2022/07/26 00:40:53;;;;;;;;;;;;;;;24.79;100.00;100012.91;4978290;28;20057;-82
2022/07/26 00:43:31;;;;;;;22.23;13.05;;;;;;;24.58;100.00;100009.31;4994249;28;19925;-81
2022/07/26 00:46:05;;;;;;;19.88;12.95;;;;;;;24.53;100.00;100003.88;4980963;28;20436;-81
2022/07/26 00:48:43;;;;;;;19.33;13.02;;;;;;;24.43;100.00;100011.97;4977184;28;20043;-82
2022/07/26 00:51:40;;;;;;;19.92;12.48;;;;;;;24.40;100.00;100009.78;4993822;28;20061;-82
2022/07/26 00:54:16;;;;;;;19.92;12.88;;;;;;;24.47;100.00;100016.59;4990820;28;20511;-83
2022/07/26 00:56:48;;;;;;;20.38;12.32;;;;;;;24.51;100.00;100000.63;4994437;28;20102;-84
2022/07/26 00:59:20;;;;;;;23.48;11.65;;;;;;;24.36;100.00;99992.47;4977393;28;20049;-82
2022/07/26 01:01:53;;;;;;;23.13;11.90;;;;;;;24.32;100.00;99985.94;4989237;28;20057;-83
2022/07/26 01:04:28;;;;;;;17.30;10.50;;;;;;;24.32;100.00;99986.75;4976136;28;20047;-82
2022/07/26 01:06:54;;;;;;;16.80;10.55;;;;;;;24.46;100.00;99997.91;4990153;28;20085;-83
2022/07/26 01:09:23;;;;;;;16.20;10.13;;;;;;;24.66;100.00;99996.06;4993141;28;20043;-83
2022/07/26 01:11:52;;;;;;;16.40;10.43;;;;;;;24.78;100.00;100003.16;4993132;28;20115;-82
2022/07/26 01:14:25;;;;;;;19.30;10.68;;;;;;;24.89;100.00;99997.50;4994004;28;20047;-83
2022/07/26 01:17:15;;;;;;;15.70;10.27;;;;;;;24.82;100.00;99983.41;4991576;28;20094;-82
2022/07/26 01:19:46;;;;;;;15.32;9.32;;;;;;;24.79;100.00;99986.59;4991751;28;20038;-82
2022/07/26 01:22:13;;;;;;;;;;;;;;;24.75;100.00;99973.88;4976294;28;20047;-83
2022/07/26 01:24:42;;;;;;;15.52;9.02;;;;;;;24.67;100.00;99972.47;4987673;28;20053;-82
2022/07/26 01:27:08;;;;;;;19.90;9.93;;;;;;;24.71;100.00;99979.00;4977856;28;20035;-84
2022/07/26 01:29:39;;;;;;;18.58;8.80;;;;;;;24.77;100.00;99974.41;4968692;28;20496;-83
2022/07/26 01:32:21;;;;;;;21.40;10.23;;;;;;;24.65;100.00;99969.25;4992650;28;20518;-83
2022/07/26 01:34:58;;;;;;;13.90;9.43;;;;;;;24.64;100.00;99963.00;4991995;28;20091;-82
2022/07/26 01:37:38;;;;;;;18.98;9.07;;;;;;;24.77;100.00;99968.97;4976996;28;20099;-82
2022/07/26 01:40:16;;;;;;;16.92;9.95;;;;;;;24.65;100.00;99970.06;4976013;28;20444;-83
2022/07/26 01:42:42;;;;;;;15.15;8.93;;;;;;;24.71;100.00;99962.75;4991744;28;20053;-83
2022/07/26 01:45:34;;;;;;;14.25;9.00;;;;;;;24.76;100.00;99954.59;4975040;28;20047;-85
2022/07/26 01:48:19;;;;;;;;;;;;;;;24.78;100.00;99955.16;4991863;28;20086;-82
2022/07/26 01:50:57;;;;;;;16.40;9.85;;;;;;;24.74;100.00;99951.38;4991291;28;19921;-83
2022/07/26 01:53:26;;;;;;;15.05;8.77;;;;;;;24.86;100.00;99956.56;4991106;28;20047;-84
2022/07/26 01:55:56;;;;;;;16.30;8.70;;;;;;;24.93;100.00;99949.78;4957664;28;20504;-83
2022/07/26 01:58:27;;;;;;;16.50;8.40;;;;;;;24.74;100.00;99951.38;4959417;28;20078;-83
2022/07/26 02:01:03;;;;;;;19.45;8.40;;;;;;;24.63;100.00;99949.72;4987268;28;20086;-83
2022/07/26 02:03:32;;;;;;;17.48;7.22;;;;;;;24.68;100.00;99941.59;4989104;28;20034;-83
2022/07/26 02:06:05;;;;;;;15.00;8.73;;;;;;;24.63;100.00;99930.75;4991251;28;20083;-83
2022/07/26 02:08:34;;;;;;;;;;;;;;;24.39;100.00;99932.31;4975151;28;20055;-83
2022/07/26 02:11:00;;;;;;;12.15;7.40;;;;;;;24.40;100.00;99940.16;4973708;28;19933;-81
2022/07/26 02:13:37;;;;;;;14.48;7.38;;;;;;;24.42;100.00;99937.22;5051319;23;20046;-82
2022/07/26 02:16:19;;;;;;;10.10;6.70;;;;;;;24.42;100.00;99942.63;4991297;28;20043;-83
2022/07/26 02:18:50;;;;;;;13.32;7.75;;;;;;;24.36;100.00;99943.69;4972370;28;20057;-83
2022/07/26 02:21:33;;;;;;;10.97;6.30;;;;;;;24.46;100.00;99939.09;4990350;28;20067;-83
2022/07/26 02:24:02;;;;;;;17.50;7.25;;;;;;;24.47;100.00;99939.91;4986306;28;20389;-83
2022/07/26 02:26:43;;;;;;;12.52;7.43;;;;;;;24.51;100.00;99935.59;4990712;28;20035;-82
2022/07/26 02:29:12;;;;;;;12.68;7.72;;;;;;;24.33;100.00;99925.28;4988950;28;20047;-83
2022/07/26 02:31:43;;;;;;;12.23;7.78;;;;;;;24.11;100.00;99926.25;4971504;28;20027;-83
2022/07/26 02:34:09;;;;;;;11.60;7.57;;;;;;;24.00;100.00;99932.69;4966347;28;20046;-82
2022/07/26 02:36:38;;;;;;;18.40;8.55;;;;;;;23.95;100.00;99924.56;4949714;28;20041;-83
2022/07/26 02:39:03;;;;;;;11.30;7.40;;;;;;;23.96;100.00;99925.38;4964148;28;20042;-83
2022/07/26 02:41:39;;;;;;;13.30;7.43;;;;;;;23.94;100.00;99931.03;4966744;28;20051;-83
2022/07/26 02:44:08;;;;;;;12.35;7.57;;;;;;;23.91;100.00;99923.44;4978564;28;20051;-82
2022/07/26 02:46:34;;;;;;;11.52;7.55;;;;;;;24.05;100.00;99924.59;4986131;28;20034;-83
2022/07/26 02:49:10;;;;;;;12.65;7.75;;;;;;;24.07;100.00;99919.72;4970510;28;20046;-82
2022/07/26 02:51:41;;;;;;;10.50;7.25;;;;;;;24.17;100.00;99917.09;4988453;28;20034;-83
2022/07/26 02:54:09;;;;;;;12.32;6.90;;;;;;;24.19;100.00;99912.19;4988619;28;20042;-83
2022/07/26 02:56:43;;;;;;;14.00;7.45;;;;;;;24.09;100.00;99912.16;4983146;28;20074;-82
2022/07/26 02:59:19;;;;;;;11.25;6.63;;;;;;;24.16;100.00;99917.38;4991291;28;20037;-83
2022/07/26 03:01:49;;;;;;;12.43;6.97;;;;;;;24.22;100.00;99910.06;4966808;28;20047;-82
2022/07/26 03:04:26;;;;;;;10.77;7.28;;;;;;;24.06;100.00;99895.63;4974374;28;20061;-82
2022/07/26 03:06:55;;;;;;;14.48;7.63;;;;;;;24.22;100.00;99901.94;4990951;28;20031;-82
2022/07/26 03:09:27;;;;;;;13.43;6.70;;;;;;;24.32;100.00;99904.69;4991487;28;20050;-83
2022/07/26 03:12:11;;;;;;;15.55;7.38;;;;;;;24.17;100.00;99903.53;4991170;28;20035;-82
2022/07/26 03:14:41;;;;;;;13.43;6.72;;;;;;;24.14;100.00;99900.56;4977118;28;20078;-82
2022/07/26 03:17:10;;;;;;;12.00;6.68;;;;;;;24.19;100.00;99898.66;4985338;28;20050;-83
2022/07/26 03:19:36;;;;;;;13.98;6.95;;;;;;;24.17;100.00;99895.41;4985298;28;20480;-82
2022/07/26 03:22:04;;;;;;;11.45;6.80;;;;;;;23.95;100.00;99891.25;4964735;28;20033;-83
2022/07/26 03:24:30;;;;;;;11.50;6.65;;;;;;;23.97;100.00;99898.03;4987474;28;20046;-82
2022/07/26 03:26:56;;;;;;;13.38;6.55;;;;;;;24.12;100.00;99892.72;4961447;28;21146;-83
2022/07/26 03:29:25;;;;;;;12.57;6.22;;;;;;;24.27;100.00;99891.09;4978157;28;20031;-79
2022/07/26 03:31:53;;;;;;;12.27;6.05;;;;;;;24.11;100.00;99898.34;4990831;28;20373;-82
2022/07/26 03:34:22;;;;;;;11.73;6.20;;;;;;;24.06;100.00;99896.41;4977372;28;20176;-81
2022/07/26 03:36:50;;;;;;;18.33;6.68;;;;;;;23.79;100.00;99895.78;4991940;28;20038;-81
2022/07/26 03:39:24;;;;;;;12.68;6.63;;;;;;;23.49;100.00;99895.63;4985975;28;20042;-82
2022/07/26 03:42:01;;;;;;;11.85;6.63;;;;;;;23.41;100.00;99917.75;4972801;28;20039;-83
2022/07/26 03:44:29;;;;;;;10.98;6.43;;;;;;;23.54;100.00;99910.00;4991391;28;20118;-82
2022/07/26 03:47:08;;;;;;;15.40;6.97;;;;;;;23.49;100.00;99923.50;4990452;28;20043;-83
2022/07/26 03:49:36;;;;;;;19.60;8.75;;;;;;;23.64;100.00;99920.88;4990571;28;20047;-83
2022/07/26 03:52:10;;;;;;;16.45;8.18;;;;;;;23.48;100.00;99916.44;4986884;28;20054;-83
2022/07/26 03:54:49;;;;;;;20.00;9.95;;;;;;;23.53;100.00;99921.09;4960492;28;20054;-82
2022/07/26 03:57:24;;;;;;;18.42;10.57;;;;;;;23.69;100.00;99922.81;4981785;23;20129;-82
2022/07/26 03:59:53;;;;;;;18.75;11.55;;;;;;;23.67;100.00;99916.81;4969065;28;20054;-82
2022/07/26 04:02:23;;;;;;;22.52;13.10;;;;;;;23.52;100.00;99932.97;4990499;28;20038;-84
2022/07/26 04:04:58;;;;;;;22.65;13.40;;;;;;;23.34;100.00;99919.81;4990645;28;20031;-83
2022/07/26 04:07:32;;;;;;;21.10;14.38;;;;;;;23.28;100.00;99923.56;4984705;28;20062;-83
2022/07/26 04:10:08;;;;;;;25.40;15.38;;;;;;;22.91;100.00;99926.25;4990272;28;20039;-83
2022/07/26 04:12:41;;;;;;;22.67;16.08;;;;;;;;;;4973873;28;20107;-84
2022/07/26 04:15:12;;;;;;;30.67;16.92;;;;;;;22.87;100.00;99920.53;4973143;28;20035;-82
2022/07/26 04:18:03;;;;;;;25.23;16.52;;;;;;;22.74;100.00;99929.06;4964459;28;20050;-82
2022/07/26 04:20:32;;;;;;;27.33;16.93;;;;;;;22.97;100.00;99931.44;4992964;28;20081;-83
2022/07/26 04:23:10;;;;;;;27.30;16.45;;;;;;;23.01;100.00;99931.75;4992918;28;20035;-83
2022/07/26 04:25:40;;;;;;;25.45;15.27;;;;;;;22.98;100.00;99927.66;4958768;28;20054;-83
2022/07/26 04:28:14;;;;;;;25.02;15.82;;;;;;;23.08;100.00;99935.03;4992228;28;20043;-83
2022/07/26 04:30:46;;;;;;;27.15;16.50;;;;;;;23.20;100.00;99932.19;4975913;28;20046;-83
2022/07/26 04:33:15;;;;;;;29.38;15.90;;;;;;;23.20;100.00;99937.59;4992709;28;20047;-82
2022/07/26 04:36:07;;;;;;;24.52;16.67;;;;;;;23.27;100.00;99938.19;4974774;28;20032;-83
2022/07/26 04:38:47;;;;;;;25.75;16.02;;;;;;;23.34;100.00;99936.03;4978745;28;20055;-83
2022/07/26 04:41:22;;;;;;;24.88;16.15;;;;;;;23.36;100.00;99939.31;4990871;28;20039;-83
2022/07/26 04:44:16;;;;;;;26.33;16.02;;;;;;;23.45;100.00;99937.78;4991075;28;20046;-83
2022/07/26 04:46:51;;;;;;;31.52;15.32;;;;;;;23.53;100.00;99940.03;4992516;28;20034;-83
2022/07/26 04:49:36;;;;;;;37.42;16.60;;;;;;;23.56;100.00;99934.09;4992903;28;20038;-83
2022/07/26 04:52:08;;;;;;;28.80;15.55;;;;;;;23.58;100.00;99937.34;4969198;28;20056;-83
2022/07/26 04:54:43;;;;;;;31.33;15.43;;;;;;;23.68;100.00;99931.97;4974600;28;20039;-83
2022/07/26 04:57:12;;;;;;;28.23;14.88;;;;;;;23.81;100.00;99931.50;4991047;28;20054;-83
2022/07/26 04:59:49;;;;;;;27.35;16.30;;;;;;;23.94;100.00;99939.16;4975227;28;20035;-83
2022/07/26 05:02:18;;;;;;;20.85;14.93;;;;;;;23.91;100.00;99942.41;4974014;28;20047;-84
2022/07/26 05:04:47;;;;;;;32.50;16.08;;;;;;;23.88;100.00;99942.91;4974363;28;20049;-84
2022/07/26 05:07:15;;;;;;;26.38;13.77;;;;;;;23.86;100.00;99942.38;4974910;28;20074;-84
2022/07/26 05:09:43;;;;;;;20.52;14.00;;;;;;;23.93;100.00;99934.81;4991410;28;20061;-83
2022/07/26 05:12:15;;;;;;;21.70;13.57;;;;;;;23.99;100.00;99939.19;4991713;28;20039;-83
2022/07/26 05:14:44;;;;;;;25.60;14.15;;;;;;;24.11;100.00;99952.50;4974257;28;20043;-83
2022/07/26 05:17:12;;;;;;;22.85;13.80;;;;;;;24.26;100.00;99949.09;4973925;28;20039;-83
2022/07/26 05:19:38;;;;;;;22.67;13.38;;;;;;;24.25;100.00;99942.03;4990227;28;20093;-84
2022/07/26 05:22:13;;;;;;;24.92;14.25;;;;;;;24.32;100.00;99945.31;4990332;28;20122;-83
2022/07/26 05:24:42;;;;;;;21.20;12.60;;;;;;;24.30;100.00;99942.03;4991323;28;20226;-83
2022/07/26 05:27:28;;;;;;;26.85;15.00;;;;;;;24.33;100.00;99944.22;4960870;28;20039;-83
2022/07/26 05:30:05;;;;;;;24.60;13.13;;;;;;;24.46;100.00;99954.56;4988555;28;20054;-84
2022/07/26 05:32:37;;;;;;;26.08;14.07;;;;;;;24.62;100.00;99959.75;4995071;28;20041;-82
2022/07/26 05:35:07;;;;;;;20.02;14.32;;;;;;;24.67;100.00;99951.63;4976018;28;20237;-83
2022/07/26 05:37:47;;;;;;;25.05;15.05;;;;;;;24.71;100.00;99951.91;4977519;28;20042;-84
2022/07/26 05:40:18;;;;;;;27.08;14.75;;;;;;;24.72;100.00;99948.13;4964530;28;20058;-84
2022/07/26 05:42:48;;;;;;;24.40;14.60;;;;;;;24.88;100.00;99949.78;4991805;28;20065;-84
2022/07/26 05:45:26;;;;;;;25.40;14.48;;;;;;;24.81;100.00;99946.50;4991961;28;20030;-83
2022/07/26 05:47:56;;;;;;;22.30;14.80;;;;;;;24.94;100.00;99943.28;4991644;28;20055;-84
2022/07/26 05:50:31;;;;;;;19.05;13.95;;;;;;;25.05;100.00;99947.66;4975980;28;20030;-84
2022/07/26 05:53:02;;;;;;;21.13;14.18;;;;;;;25.23;100.00;99946.25;4989741;28;20102;-83
2022/07/26 05:55:31;;;;;;;25.73;13.55;;;;;;;25.35;100.00;99946.00;4974228;28;20084;-83
2022/07/26 05:57:57;;;;;;;19.02;13.50;;;;;;;25.57;100.00;99957.41;4991801;28;20031;-83
2022/07/26 06:00:32;;;;;;;23.60;13.70;;;;;;;25.84;100.00;99960.59;4990979;28;20037;-84
2022/07/26 06:03:23;;;;;;;26.40;13.82;;;;;;;26.11;100.00;99958.34;4991010;28;20035;-83
2022/07/26 06:05:58;;;;;;;22.00;13.52;;;;;;;26.28;98.66;99954.50;4961132;28;20047;-85
2022/07/26 06:08:27;;;;;;;22.00;13.20;;;;;;;26.26;99.51;99956.66;4993722;28;20043;-83
2022/07/26 06:11:20;;;;;;;19.33;13.02;;;;;;;26.53;98.87;99957.06;4992826;28;20058;-85
2022/07/26 06:14:25;;;;;;;;;;;;;;;26.90;95.32;99951.16;4994987;28;20046;-82
2022/07/26 06:17:10;;;;;;;25.23;13.75;;;;;;;27.42;91.08;99948.53;4992853;28;19918;-83
2022/07/26 06:19:48;;;;;;;18.65;13.73;;;;;;;27.66;89.41;99954.88;4974462;28;20123;-85
2022/07/26 06:22:16;;;;;;;22.55;12.55;;;;;;;28.10;86.83;99953.88;4958623;28;20043;-88
2022/07/26 06:24:42;;;;;;;23.70;12.70;;;;;;;27.90;84.85;99960.34;4961977;28;20396;-90
2022/07/26 06:27:07;;;;;;;19.52;12.25;;;;;;;28.37;82.66;99954.03;4959690;28;20173;-87
2022/07/26 06:29:33;;;;;;;17.08;12.05;;;;;;;29.27;78.50;99963.97;4977202;28;20130;-87
2022/07/26 06:32:00;;;;;;;17.10;11.35;;;;;;;29.60;75.88;99957.31;4977531;28;20058;-90
2022/07/26 06:34:26;;;;;;;17.35;11.68;;;;;;;28.91;79.98;99964.47;4970615;28;20042;-90
2022/07/26 06:36:51;;;;;;;18.27;11.13;;;;;;;28.96;79.22;99961.69;4958231;28;20031;-90
2022/07/26 06:39:17;;;;;;;22.55;13.23;;;;;;;29.16;77.12;99966.81;4959426;28;20062;-88
2022/07/26 06:41:42;;;;;;;17.40;10.95;;;;;;;29.22;77.42;99967.53;4976638;28;20042;-88
2022/07/26 06:44:08;;;;;;;15.48;10.27;;;;;;;29.23;76.57;99975.41;4976351;28;20554;-90
2022/07/26 06:46:33;;;;;;;16.48;9.95;;;;;;;29.45;76.13;99974.81;4958685;28;20070;-89
2022/07/26 06:48:59;;;;;;;19.70;11.10;;;;;;;29.97;74.11;99973.59;4942479;28;20159;-89
2022/07/26 06:52:24;;;;;;;25.23;11.52;;;;;;;29.84;74.67;99977.13;4992567;28;20102;-84
2022/07/26 06:55:32;;;;;;;23.90;11.27;;;;;;;30.49;71.62;99966.00;4996525;28;20067;-88
2022/07/26 06:58:37;;;;;;;20.00;11.45;;;;;;;29.84;73.79;99979.88;4981062;28;20042;-88
2022/07/26 07:01:37;;;;;;;16.55;9.82;;;;;;;29.77;75.03;99974.75;4968460;28;20115;-88
2022/07/26 07:04:25;;;;;;;15.97;11.13;;;;;;;30.25;72.35;99972.50;4969838;28;20034;-87
2022/07/26 07:07:14;;;;;;;18.98;10.95;;;;;;;31.35;68.53;99972.19;4953613;29;20047;-81
2022/07/26 07:09:59;;;;;;;18.83;10.60;;;;;;;30.89;69.02;99959.56;4962575;28;20035;-84
2022/07/26 07:12:48;;;;;;;16.67;10.32;;;;;;;31.35;66.88;99969.47;4937008;29;20079;-85
2022/07/26 07:16:05;;;;;;;15.45;9.93;;;;;;;31.20;63.40;99971.44;4976150;29;20074;-86
2022/07/26 07:19:10;;;;;;;18.38;8.40;;;;;;;30.82;66.10;99970.16;4973395;29;20035;-85
2022/07/26 07:21:56;;;;;;;12.38;8.40;;;;;;;31.90;62.51;99978.97;4973757;29;20063;-84
2022/07/26 07:24:49;;;;;;;13.48;9.57;;;;;;;32.04;61.94;99974.22;4973449;29;20059;-85
2022/07/26 07:27:39;;;;;;;12.85;9.82;;;;;;;31.26;63.99;99967.47;5008644;28;20050;-85
2022/07/26 07:33:47;;;;;;;17.52;9.90;;;;;;;31.55;62.34;99968.97;5032000;23;20058;-84
2022/07/26 07:36:22;;;;;;;16.17;8.68;;;;;;;31.17;64.54;99961.13;4928144;29;20052;-84
2022/07/26 07:38:53;;;;;;;12.23;8.13;;;;;;;30.84;66.02;99962.44;4918826;29;20056;-84
2022/07/26 07:45:02;;;;;;;19.00;9.70;;;;;;;31.45;65.38;99964.53;4652677;26;20050;-86
2022/07/26 07:47:54;;;;;;;18.30;8.98;;;;;;;31.26;66.38;99958.44;4992257;28;20054;-85
2022/07/26 07:50:35;;;;;;;14.27;9.05;;;;;;;31.69;62.41;99955.97;4980196;23;20089;-85
2022/07/26 07:53:21;;;;;;;16.67;7.90;;;;;;;31.01;65.29;99956.34;4990300;28;20038;-85
2022/07/26 07:59:48;;;;;;;14.38;9.23;;;;;;;32.46;61.39;99952.69;4982791;28;20035;-87
2022/07/26 08:02:18;;;;;;;15.73;8.77;;;;;;;32.73;59.05;99957.91;4990086;28;20050;-88
2022/07/26 08:05:06;;;;;;;16.40;8.88;;;;;;;32.91;57.26;99958.72;4974456;28;20110;-84
2022/07/26 08:08:06;;;;;;;13.40;7.10;;;;;;;32.94;58.19;99964.38;4993061;28;20066;-87
2022/07/26 09:00:32;;;;;;;18.40;8.90;;;;;;;33.90;54.89;99963.88;4471728;23;20055;-88
2022/07/26 09:49:20;;;;;;;18.38;11.32;;;;;;;35.21;50.11;99941.44;563707;26;20320;-85
2022/07/26 09:51:52;;;;;;;18.25;9.07;;;;;;;35.53;49.43;99942.56;5013485;28;20050;-82
2022/07/26 09:55:12;;;;;;;21.05;12.20;;;;;;;35.98;47.60;99943.31;5019885;28;20106;-86
2022/07/26 10:00:41;;;;;;;21.90;12.23;;;;;;;35.54;48.20;99938.66;4975412;28;20081;-81
2022/07/26 10:03:06;;;;;;;18.38;10.00;;;;;;;35.84;47.63;99940.09;4978263;28;20051;-80
2022/07/26 10:05:32;;;;;;;15.48;8.73;;;;;;;35.85;48.11;99941.69;4977761;28;20097;-83
2022/07/26 10:07:59;;;;;;;15.50;10.45;;;;;;;35.47;47.59;99943.91;4980135;28;20046;-86
2022/07/26 10:10:30;;;;;;;17.10;8.55;;;;;;;35.61;46.97;99938.91;4987756;28;20085;-87
2022/07/26 10:12:57;;;;;;;15.13;8.63;;;;;;;35.96;44.89;99934.59;4988535;28;20031;-88
2022/07/26 10:15:37;;;;;;;15.75;6.95;;;;;;;36.02;45.54;99930.44;4991012;28;20039;-90
2022/07/26 10:18:05;;;;;;;14.45;9.75;;;;;;;35.51;46.55;99931.88;4981494;28;20039;-83
2022/07/26 10:20:57;;;;;;;18.23;10.77;;;;;;;35.46;48.34;99928.53;4980088;28;20023;-85
2022/07/26 10:23:41;;;;;;;23.02;10.02;;;;;;;35.96;45.47;99926.31;4976351;28;20384;-86
2022/07/26 10:26:28;;;;;;;18.95;13.02;;;;;;;35.39;47.56;99923.59;4995419;28;20023;-86
2022/07/26 10:29:17;;;;;;;17.50;11.10;;;;;;;35.65;47.22;99920.53;4979521;28;20043;-86
2022/07/26 10:32:15;;;;;;;16.15;9.20;;;;;;;35.59;47.66;99924.69;4965317;29;20134;-82
2022/07/26 10:35:49;;;;;;;12.00;8.95;;;;;;;35.01;47.11;99926.53;5000049;28;20045;-81
2022/07/26 10:38:34;;;;;;;14.85;9.07;;;;;;;34.36;48.90;99920.91;4971633;28;20058;-80
2022/07/26 10:41:10;;;;;;;11.95;8.93;;;;;;;34.50;48.42;99915.97;4975058;28;20046;-80
2022/07/26 10:43:45;;;;;;;17.48;7.97;;;;;;;35.07;47.16;99916.91;4979608;28;20077;-82
2022/07/26 10:46:22;;;;;;;18.33;7.45;;;;;;;35.56;44.33;99911.56;4955339;29;20501;-79
2022/07/26 10:51:46;;;;;;;;;;;;;;;35.53;46.47;99910.25;4683803;26;20047;-79
2022/07/26 10:54:26;;;;;;;16.27;8.05;;;;;;;36.15;44.80;99910.00;4985597;28;19918;-79
2022/07/26 10:57:02;;;;;;;15.20;7.70;;;;;;;36.14;44.37;99908.38;4993150;28;20045;-81
2022/07/26 11:02:46;;;;;;;10.00;6.20;;;;;;;36.73;42.25;99899.50;5023081;23;20062;-78
2022/07/26 11:05:15;;;;;;;10.52;6.47;;;;;;;36.86;41.03;99903.81;4993313;28;20039;-78
2022/07/26 11:08:09;;;;;;;13.70;6.25;;;;;;;37.00;39.97;99898.72;4993817;28;20054;-78
2022/07/26 11:10:59;;;;;;;9.95;5.38;;;;;;;37.36;38.01;99907.94;4993221;28;20070;-80
2022/07/26 11:13:36;;;;;;;12.90;5.65;;;;;;;37.01;38.34;99903.09;4994941;28;20015;-80
2022/07/26 11:16:27;;;;;;;9.52;5.07;;;;;;;36.48;38.01;99895.19;4991026;28;20035;-82
2022/07/26 11:19:28;;;;;;;11.98;5.00;;;;;;;36.82;38.24;99888.31;4949702;28;20043;-81
2022/07/26 11:22:51;;;;;;;10.77;5.60;;;;;;;37.06;37.98;99894.53;4956486;28;20051;-83
2022/07/26 11:25:38;;;;;;;10.90;6.15;;;;;;;36.07;41.06;99893.56;5091315;23;20059;-82
2022/07/26 11:28:12;;;;;;;10.90;6.32;;;;;;;36.14;40.53;99888.25;5013874;28;20065;-81
2022/07/26 11:34:00;;;;;;;;;;;;;;;35.64;43.03;99880.31;3112056;26;20055;-83
2022/07/26 11:36:55;;;;;;;17.17;8.50;;;;;;;35.18;43.65;99873.25;4989251;28;19918;-84
2022/07/26 11:39:44;;;;;;;12.93;8.02;;;;;;;35.21;43.97;99869.81;4970997;23;20055;-82
2022/07/26 11:42:18;;;;;;;12.60;6.95;;;;;;;35.25;44.02;99876.25;4952183;29;20142;-83
2022/07/26 11:44:57;;;;;;;18.55;8.07;;;;;;;35.08;43.37;99874.47;4954959;29;20062;-82
2022/07/26 11:47:46;;;;;;;13.90;6.72;;;;;;;34.97;44.48;99870.50;5026012;23;20082;-81
2022/07/26 11:51:10;;;;;;;13.95;7.57;;;;;;;34.17;46.00;99863.59;4993776;28;20043;-82
2022/07/26 12:01:59;;;;;;;10.07;7.53;;;;;;;33.71;47.25;99856.22;4406069;26;20054;-86
2022/07/26 12:11:07;;;;;;;15.18;6.32;;;;;;;33.45;48.13;99841.78;2901967;26;20129;-88
2022/07/26 12:17:26;;;;;;;10.13;6.90;;;;;;;33.48;47.12;99824.63;5146181;23;20058;-88
2022/07/26 12:21:00;;;;;;;9.55;6.32;;;;;;;33.34;47.69;99821.31;4954168;29;20047;-87
2022/07/26 12:28:02;;;;;;;9.75;7.18;;;;;;;33.38;48.48;99820.31;4983560;23;20427;-86
2022/07/26 12:30:34;;;;;;;11.13;6.68;;;;;;;33.33;48.23;99805.97;4974009;28;20119;-87
2022/07/26 12:33:00;;;;;;;10.15;6.22;;;;;;;33.57;47.82;99807.00;4957961;28;20073;-86
2022/07/26 12:35:32;;;;;;;11.38;6.72;;;;;;;33.63;47.73;99791.13;4976799;28;20070;-87
2022/07/26 12:37:58;;;;;;;12.75;8.45;;;;;;;33.81;47.56;99792.63;4979518;28;20039;-88
2022/07/26 12:40:29;;;;;;;8.48;6.35;;;;;;;33.66;48.26;99793.22;4980776;28;20035;-87
2022/07/26 12:42:59;;;;;;;11.77;5.70;;;;;;;33.56;46.92;99799.06;4983429;28;20068;-87
2022/07/26 12:45:33;;;;;;;11.55;6.30;;;;;;;33.44;47.21;99794.28;4978260;28;20294;-86
2022/07/26 12:48:02;;;;;;;13.15;6.57;;;;;;;33.26;47.76;99790.81;4979371;28;20109;-87
2022/07/26 12:50:30;;;;;;;13.95;6.63;;;;;;;33.41;47.15;99794.94;4985484;28;20618;-86
2022/07/26 12:53:01;;;;;;;11.75;6.20;;;;;;;33.16;47.31;99802.16;4999935;28;20053;-87
2022/07/26 12:55:27;;;;;;;10.02;6.63;;;;;;;33.24;47.15;99787.56;4995132;28;20099;-88
2022/07/26 12:57:52;;;;;;;11.40;6.50;;;;;;;33.39;47.04;99788.16;4946305;28;20039;-85
2022/07/26 13:00:19;;;;;;;11.93;6.55;;;;;;;33.17;47.44;99787.31;4979357;28;20042;-88
2022/07/26 13:02:46;;;;;;;8.13;5.68;;;;;;;33.13;48.32;99780.84;4961980;28;20050;-86
2022/07/26 13:05:13;;;;;;;11.27;5.63;;;;;;;33.41;46.73;99774.91;4979052;28;20546;-85
2022/07/26 13:07:39;;;;;;;10.15;5.78;;;;;;;33.76;46.16;99773.59;4979318;28;20114;-85
2022/07/26 13:10:11;;;;;;;10.88;6.25;;;;;;;33.71;46.24;99779.25;4978211;28;20459;-87
2022/07/26 13:12:36;;;;;;;12.25;5.97;;;;;;;33.69;45.93;99765.06;4979484;28;20373;-86
2022/07/26 13:15:04;;;;;;;14.07;6.20;;;;;;;33.64;46.27;99768.81;4980284;28;20026;-87
2022/07/26 13:17:30;;;;;;;9.95;5.22;;;;;;;33.80;45.97;99762.72;4962880;28;20058;-88
2022/07/26 13:19:55;;;;;;;10.20;5.43;;;;;;;33.77;46.07;99756.75;4962642;28;20062;-88
2022/07/26 13:22:21;;;;;;;11.93;5.70;;;;;;;33.96;46.36;99759.03;4963891;28;20031;-88
2022/07/26 13:24:47;;;;;;;9.65;6.03;;;;;;;33.91;46.15;99756.47;4985036;28;20034;-90
2022/07/26 13:27:17;;;;;;;10.48;6.50;;;;;;;33.44;46.64;99757.75;4969428;28;20039;-91
2022/07/26 13:29:42;;;;;;;10.15;5.88;;;;;;;33.45;47.16;99757.41;4983507;28;20038;-87
2022/07/26 13:32:08;;;;;;;10.10;5.90;;;;;;;33.69;46.62;99754.06;4980282;28;20031;-87
2022/07/26 13:34:33;;;;;;;9.43;5.40;;;;;;;33.70;46.41;99739.19;4945812;28;20473;-88
2022/07/26 13:36:59;;;;;;;13.82;6.05;;;;;;;33.73;45.89;99744.03;4961086;28;20078;-87
2022/07/26 13:39:26;;;;;;;9.65;5.18;;;;;;;33.63;46.82;99738.91;4961170;28;20134;-87
2022/07/26 13:41:52;;;;;;;13.77;5.68;;;;;;;33.72;46.30;99742.41;4978333;28;20488;-85
2022/07/26 13:44:18;;;;;;;11.02;5.50;;;;;;;33.72;45.73;99745.16;4978048;28;20058;-90
2022/07/26 13:46:43;;;;;;;10.43;5.30;;;;;;;33.58;45.80;99744.56;4966300;28;20043;-89
2022/07/26 13:49:11;;;;;;;12.55;5.38;;;;;;;33.53;45.73;99734.59;4980860;28;20041;-90
2022/07/26 13:54:26;;;;;;;10.15;5.32;;;;;;;33.70;44.91;99734.50;4979010;28;20062;-87
2022/07/26 13:56:52;;;;;;;15.20;4.97;;;;;;;33.87;44.20;99735.50;4964741;28;20377;-90
2022/07/26 13:59:18;;;;;;;9.30;4.97;;;;;;;33.75;44.41;99742.53;4935176;28;20030;-92
2022/07/26 14:01:44;;;;;;;10.52;5.60;;;;;;;33.88;44.83;99734.34;4953862;28;20061;-89
2022/07/26 14:04:10;;;;;;;12.27;5.85;;;;;;;33.66;43.83;99739.06;4980756;28;20039;-91
2022/07/26 14:06:39;;;;;;;9.57;5.28;;;;;;;33.66;44.11;99727.25;4984342;28;20027;-89
2022/07/26 14:09:12;;;;;;;13.32;5.30;;;;;;;33.90;43.23;99721.91;4980785;28;20098;-87
2022/07/26 14:11:40;;;;;;;10.88;4.72;;;;;;;34.00;42.84;99716.00;4981241;28;20049;-89
2022/07/26 14:14:06;;;;;;;10.27;5.05;;;;;;;34.00;43.83;99731.69;4980939;28;20042;-92
2022/07/26 14:16:33;;;;;;;13.07;4.75;;;;;;;34.10;42.76;99726.56;4982308;28;20093;-89
2022/07/26 14:18:59;;;;;;;10.32;4.80;;;;;;;34.05;42.37;99717.72;4982403;28;20488;-88
2022/07/26 14:21:29;;;;;;;11.05;4.50;;;;;;;34.11;42.18;99719.94;4963348;28;20047;-90
2022/07/26 14:23:55;;;;;;;14.63;4.82;;;;;;;34.17;41.95;99721.34;4981032;28;20047;-87